createdAt,value
2019-04-09T00:02:33.872Z,67.82
2019-04-09T00:05:03.204Z,67.61
2019-04-09T00:07:31.910Z,66.88
2019-04-09T00:10:01.762Z,67.31
2019-04-09T00:12:31.611Z,67.92
2019-04-09T00:15:01.035Z,67.71
2019-04-09T00:17:30.454Z,67.52
2019-04-09T00:19:59.857Z,67.49
2019-04-09T00:22:29.778Z,67.50
2019-04-09T00:24:59.209Z,68.15
2019-04-09T00:27:28.586Z,68.27
2019-04-09T00:29:58.146Z,68.73
2019-04-09T00:32:28.268Z,68.53
2019-04-09T00:34:57.746Z,68.49
2019-04-09T00:37:27.353Z,68.67
2019-04-09T00:39:57.261Z,69.11
2019-04-09T00:42:27.232Z,69.18
2019-04-09T00:44:57.474Z,69.07
2019-04-09T00:47:28.410Z,69.03
2019-04-09T00:49:59.179Z,69.30
2019-04-09T00:52:28.810Z,69.85
2019-04-09T00:54:58.480Z,69.98
2019-04-09T00:57:29.007Z,69.98
2019-04-09T00:59:59.100Z,70.29
2019-04-09T01:02:28.845Z,70.36
2019-04-09T01:04:58.394Z,70.98
2019-04-09T01:07:28.656Z,71.05
2019-04-09T01:09:58.035Z,71.48
2019-04-09T01:12:28.212Z,71.65
2019-04-09T01:14:57.810Z,71.75
2019-04-09T01:17:27.527Z,71.58
2019-04-09T01:19:56.976Z,71.43
2019-04-09T01:22:26.558Z,71.29
2019-04-09T01:25:16.710Z,72.22
2019-04-09T01:27:46.363Z,72.29
2019-04-09T01:30:26.362Z,73.16
2019-04-09T01:33:17.892Z,72.76
2019-04-09T01:36:02.552Z,72.92
2019-04-09T01:38:47.172Z,72.48
2019-04-09T01:41:23.451Z,72.32
2019-04-09T01:44:15.715Z,72.47
2019-04-09T01:47:04.198Z,72.00
2019-04-09T01:49:58.923Z,71.77
2019-04-09T01:52:46.919Z,72.22
2019-04-09T01:55:47.870Z,72.15
2019-04-09T01:58:51.347Z,71.65
2019-04-09T02:01:38.440Z,72.57
2019-04-09T02:04:33.148Z,72.81
2019-04-09T02:07:36.991Z,72.71
2019-04-09T02:10:32.000Z,72.60
2019-04-09T02:13:20.349Z,72.34
2019-04-09T02:16:12.495Z,72.48
2019-04-09T02:19:00.804Z,72.52
2019-04-09T02:21:35.840Z,72.67
2019-04-09T02:24:18.115Z,72.97
2019-04-09T02:27:10.328Z,73.20
2019-04-09T02:30:06.357Z,73.24
2019-04-09T02:33:13.329Z,73.33
2019-04-09T02:35:57.433Z,73.66
2019-04-09T02:39:01.035Z,73.55
2019-04-09T02:42:02.069Z,74.18
2019-04-09T02:44:59.832Z,74.42
2019-04-09T02:47:48.214Z,74.84
2019-04-09T02:50:39.335Z,75.16
2019-04-09T02:53:27.360Z,74.80
2019-04-09T02:56:14.177Z,75.03
2019-04-09T02:58:51.672Z,75.45
2019-04-09T03:01:38.737Z,75.22
2019-04-09T03:04:18.021Z,74.68
2019-04-09T03:06:57.283Z,74.68
2019-04-09T03:09:45.975Z,74.59
2019-04-09T03:12:41.469Z,74.38
2019-04-09T03:15:25.268Z,74.13
2019-04-09T03:18:11.706Z,74.20
2019-04-09T03:21:06.424Z,74.31
2019-04-09T03:23:55.872Z,75.56
2019-04-09T03:26:47.984Z,75.08
2019-04-09T03:29:27.048Z,75.20
2019-04-09T03:32:10.262Z,75.20
2019-04-09T03:34:56.469Z,75.51
2019-04-09T03:37:35.767Z,75.39
2019-04-09T03:40:27.480Z,75.99
2019-04-09T03:43:22.970Z,76.62
2019-04-09T03:46:11.614Z,76.76
2019-04-09T03:48:58.790Z,76.45
2019-04-09T03:51:56.298Z,76.30
2019-04-09T03:54:47.599Z,76.04
2019-04-09T03:57:24.573Z,76.11
2019-04-09T04:00:11.794Z,75.74
2019-04-09T04:03:01.391Z,75.61
2019-04-09T04:05:50.821Z,75.39
2019-04-09T04:08:54.344Z,75.41
2019-04-09T04:11:52.187Z,75.80
2019-04-09T04:14:43.515Z,76.28
2019-04-09T04:17:30.650Z,76.49
2019-04-09T04:20:18.977Z,76.51
2019-04-09T04:23:06.759Z,76.95
2019-04-09T04:26:05.204Z,76.98
2019-04-09T04:29:08.928Z,76.79
2019-04-09T04:32:06.921Z,76.57
2019-04-09T04:34:45.799Z,76.55
2019-04-09T04:37:33.301Z,76.53
2019-04-09T04:40:25.119Z,76.69
2019-04-09T04:43:08.424Z,76.48
2019-04-09T04:46:00.569Z,76.55
2019-04-09T04:48:58.432Z,75.98
2019-04-09T04:51:46.955Z,75.67
2019-04-09T04:54:41.160Z,75.14
2019-04-09T04:57:31.943Z,75.28
2019-04-09T05:00:15.811Z,75.20
2019-04-09T05:03:04.143Z,75.05
2019-04-09T05:06:05.258Z,75.32
2019-04-09T05:08:42.355Z,75.47
2019-04-09T05:11:30.753Z,75.60
2019-04-09T05:14:21.819Z,75.33
2019-04-09T05:16:58.419Z,75.17
2019-04-09T05:19:46.863Z,75.06
2019-04-09T05:22:42.233Z,74.84
2019-04-09T05:25:31.372Z,74.65
2019-04-09T05:28:18.551Z,74.71
2019-04-09T05:31:00.951Z,74.39
2019-04-09T05:33:47.284Z,74.53
2019-04-09T05:36:29.047Z,74.40
2019-04-09T05:39:17.772Z,73.84
2019-04-09T05:41:56.423Z,73.74
2019-04-09T05:44:49.506Z,73.66
2019-04-09T05:47:50.640Z,73.56
2019-04-09T05:50:48.275Z,73.51
2019-04-09T05:53:28.196Z,73.45
2019-04-09T05:56:15.999Z,73.61
2019-04-09T05:59:09.612Z,73.34
2019-04-09T06:02:03.864Z,73.39
2019-04-09T06:05:04.771Z,73.14
2019-04-09T06:07:59.808Z,73.45
2019-04-09T06:10:30.248Z,73.12
2019-04-09T06:13:00.800Z,72.70
2019-04-09T06:15:30.919Z,72.32
2019-04-09T06:18:00.384Z,72.12
2019-04-09T06:20:30.242Z,71.91
2019-04-09T06:22:59.735Z,71.83
2019-04-09T06:25:29.850Z,71.83
2019-04-09T06:27:59.583Z,71.58
2019-04-09T06:30:29.380Z,72.02
2019-04-09T06:33:17.859Z,72.18
2019-04-09T06:36:15.491Z,71.78
2019-04-09T06:39:13.111Z,71.83
2019-04-09T06:42:10.912Z,71.60
2019-04-09T06:44:59.538Z,71.54
2019-04-09T06:47:37.048Z,71.61
2019-04-09T06:50:27.085Z,71.62
2019-04-09T06:53:04.583Z,71.76
2019-04-09T06:55:55.735Z,71.37
2019-04-09T06:58:50.526Z,70.88
2019-04-09T07:01:45.257Z,70.87
2019-04-09T07:04:32.440Z,70.50
2019-04-09T07:07:24.668Z,70.27
2019-04-09T07:10:11.912Z,69.77
2019-04-09T07:13:14.144Z,69.50
2019-04-09T07:16:13.456Z,70.08
2019-04-09T07:19:02.310Z,70.05
2019-04-09T07:21:50.904Z,69.98
2019-04-09T07:24:48.849Z,69.71
2019-04-09T07:27:29.302Z,70.42
2019-04-09T07:30:28.708Z,71.26
2019-04-09T07:33:18.954Z,71.80
2019-04-09T07:36:03.075Z,71.50
2019-04-09T07:38:51.930Z,70.95
2019-04-09T07:41:27.379Z,70.59
2019-04-09T07:44:05.711Z,70.82
2019-04-09T07:47:12.114Z,70.41
2019-04-09T07:50:01.320Z,70.32
2019-04-09T07:52:51.190Z,70.90
2019-04-09T07:55:47.043Z,70.42
2019-04-09T07:58:31.992Z,70.82
2019-04-09T08:01:25.344Z,70.40
2019-04-09T08:04:21.098Z,69.79
2019-04-09T08:07:08.135Z,70.04
2019-04-09T08:10:00.647Z,69.15
2019-04-09T08:12:35.457Z,69.31
2019-04-09T08:15:24.925Z,69.42
2019-04-09T08:18:18.625Z,69.97
2019-04-09T08:20:51.804Z,69.65
2019-04-09T08:23:41.656Z,69.77
2019-04-09T08:26:36.935Z,70.65
2019-04-09T08:29:25.339Z,70.67
2019-04-09T08:32:26.600Z,70.85
2019-04-09T08:35:15.741Z,71.98
2019-04-09T08:38:04.532Z,72.13
2019-04-09T08:40:54.127Z,72.52
2019-04-09T08:43:43.263Z,73.10
2019-04-09T08:46:22.733Z,74.17
2019-04-09T08:48:58.061Z,73.97
2019-04-09T08:51:45.886Z,74.92
2019-04-09T08:54:35.076Z,75.00
2019-04-09T08:57:16.568Z,73.62
2019-04-09T09:00:02.355Z,74.01
2019-04-09T09:02:53.179Z,74.90
2019-04-09T09:05:41.129Z,74.46
2019-04-09T09:08:35.682Z,74.86
2019-04-09T09:11:27.771Z,75.01
2019-04-09T09:14:11.011Z,74.32
2019-04-09T09:16:54.218Z,75.70
2019-04-09T09:19:44.029Z,74.12
2019-04-09T09:22:41.730Z,74.89
2019-04-09T09:25:37.360Z,75.89
2019-04-09T09:28:26.712Z,76.62
2019-04-09T09:31:25.940Z,76.61
2019-04-09T09:34:08.645Z,75.89
2019-04-09T09:36:52.007Z,76.16
2019-04-09T09:39:41.224Z,76.53
2019-04-09T09:42:21.431Z,76.77
2019-04-09T09:45:16.598Z,76.39
2019-04-09T09:48:05.105Z,76.83
2019-04-09T09:50:50.324Z,76.25
2019-04-09T09:53:34.455Z,75.98
2019-04-09T09:56:34.845Z,75.91
2019-04-09T09:59:24.688Z,75.24
2019-04-09T10:02:14.283Z,75.46
2019-04-09T10:05:07.162Z,74.53
2019-04-09T10:08:01.918Z,74.75
2019-04-09T10:10:47.998Z,74.05
2019-04-09T10:13:36.452Z,73.32
2019-04-09T10:16:42.439Z,72.49
2019-04-09T10:19:40.062Z,73.25
2019-04-09T10:22:35.511Z,69.80
2019-04-09T10:25:11.194Z,70.82
2019-04-09T10:28:07.037Z,72.37
2019-04-09T10:30:55.837Z,69.68
2019-04-09T10:33:46.256Z,70.19
2019-04-09T10:36:43.378Z,68.00
2019-04-09T10:39:32.446Z,68.54
2019-04-09T10:42:17.200Z,67.11
2019-04-09T10:45:06.035Z,66.15
2019-04-09T10:48:00.429Z,66.98
2019-04-09T10:50:38.144Z,67.02
2019-04-09T10:53:30.251Z,65.94
2019-04-09T10:56:18.931Z,64.85
2019-04-09T10:59:13.453Z,64.75
2019-04-09T11:02:09.781Z,63.88
2019-04-09T11:05:02.127Z,63.42
2019-04-09T11:07:49.887Z,63.12
2019-04-09T11:10:33.052Z,61.70
2019-04-09T11:13:14.972Z,61.19
2019-04-09T11:16:10.689Z,61.41
2019-04-09T11:19:03.378Z,63.21
2019-04-09T11:21:50.778Z,62.24
2019-04-09T11:24:39.864Z,61.02
2019-04-09T11:27:32.592Z,59.09
2019-04-09T11:30:27.973Z,59.35
2019-04-09T11:33:20.477Z,59.68
2019-04-09T11:36:14.608Z,58.33
2019-04-09T11:38:54.866Z,58.41
2019-04-09T11:41:37.389Z,57.63
2019-04-09T11:44:14.898Z,57.88
2019-04-09T11:47:04.676Z,57.58
2019-04-09T11:49:48.985Z,55.91
2019-04-09T11:52:43.503Z,56.47
2019-04-09T11:55:33.248Z,56.81
2019-04-09T11:58:21.484Z,55.28
2019-04-09T12:01:10.310Z,54.93
2019-04-09T12:03:57.567Z,54.86
2019-04-09T12:06:45.135Z,54.77
2019-04-09T12:09:32.561Z,55.31
2019-04-09T12:12:13.806Z,55.09
2019-04-09T12:15:20.469Z,55.56
2019-04-09T12:18:12.230Z,53.31
2019-04-09T12:20:48.805Z,53.37
2019-04-09T12:23:56.503Z,53.25
2019-04-09T12:26:43.035Z,53.15
2019-04-09T12:29:39.212Z,52.29
2019-04-09T12:32:28.769Z,51.93
2019-04-09T12:35:17.109Z,51.89
2019-04-09T12:38:12.342Z,52.28
2019-04-09T12:41:01.434Z,54.58
2019-04-09T12:44:02.078Z,50.84
2019-04-09T12:46:51.393Z,50.45
2019-04-09T12:49:58.398Z,50.21
2019-04-09T12:53:05.721Z,51.06
2019-04-09T12:55:48.765Z,51.42
2019-04-09T12:58:34.792Z,52.63
2019-04-09T13:01:24.665Z,53.67
2019-04-09T13:04:12.068Z,51.91
2019-04-09T13:07:09.786Z,53.35
2019-04-09T13:09:58.192Z,51.89
2019-04-09T13:12:46.464Z,53.58
2019-04-09T13:15:34.547Z,52.26
2019-04-09T13:18:23.629Z,55.26
2019-04-09T13:21:11.143Z,54.96
2019-04-09T13:23:49.159Z,54.50
2019-04-09T13:26:34.120Z,55.04
2019-04-09T13:29:31.702Z,54.30
2019-04-09T13:32:41.522Z,53.65
2019-04-09T13:35:28.623Z,52.54
2019-04-09T13:38:22.953Z,53.77
2019-04-09T13:41:11.704Z,53.70
2019-04-09T13:44:03.143Z,53.00
2019-04-09T13:47:03.710Z,52.46
2019-04-09T13:49:55.299Z,53.79
2019-04-09T13:52:29.984Z,52.28
2019-04-09T13:55:01.749Z,52.54
2019-04-09T13:57:30.530Z,52.47
2019-04-09T14:00:00.609Z,53.27
2019-04-09T14:02:31.612Z,51.51
2019-04-09T14:05:08.372Z,51.82
2019-04-09T14:07:39.607Z,52.67
2019-04-09T14:10:11.008Z,52.23
2019-04-09T14:12:40.384Z,52.66
2019-04-09T14:15:10.445Z,51.81
2019-04-09T14:17:42.868Z,51.62
2019-04-09T14:20:14.101Z,51.80
2019-04-09T14:22:45.683Z,52.64
2019-04-09T14:25:15.243Z,53.28
2019-04-09T14:27:44.641Z,52.30
2019-04-09T14:30:14.625Z,52.65
2019-04-09T14:32:58.647Z,52.67
2019-04-09T14:35:17.983Z,51.53
2019-04-09T14:37:47.479Z,51.04
2019-04-09T14:40:17.484Z,50.99
2019-04-09T14:42:46.964Z,50.24
2019-04-09T14:45:17.469Z,49.88
2019-04-09T14:47:47.153Z,48.03
2019-04-09T14:50:17.801Z,47.60
2019-04-09T14:52:52.192Z,45.98
2019-04-09T14:55:19.383Z,44.89
2019-04-09T14:57:49.888Z,44.74
2019-04-09T15:00:20.742Z,45.29
2019-04-09T15:02:51.025Z,46.96
2019-04-09T15:05:23.353Z,47.27
2019-04-09T15:07:52.435Z,47.74
2019-04-09T15:10:21.965Z,48.29
2019-04-09T15:12:51.600Z,48.36
2019-04-09T15:15:22.102Z,48.80
2019-04-09T15:17:52.443Z,49.89
2019-04-09T15:20:22.113Z,50.06
2019-04-09T15:22:51.511Z,50.91
2019-04-09T15:25:21.894Z,50.87
2019-04-09T15:27:51.375Z,52.31
2019-04-09T15:30:21.699Z,53.80
2019-04-09T15:32:51.075Z,54.60
2019-04-09T15:35:21.574Z,55.39
2019-04-09T15:37:52.463Z,56.63
2019-04-09T15:40:21.975Z,56.70
2019-04-09T15:42:51.399Z,57.53
2019-04-09T15:45:20.788Z,57.40
2019-04-09T15:47:50.187Z,58.25
2019-04-09T15:50:20.139Z,59.04
2019-04-09T15:52:49.548Z,59.07
2019-04-09T15:55:19.255Z,60.57
2019-04-09T15:57:48.743Z,58.43
2019-04-09T16:00:18.518Z,58.89
2019-04-09T16:02:48.910Z,60.18
2019-04-09T16:05:18.420Z,60.36
2019-04-09T16:07:48.993Z,60.95
2019-04-09T16:10:18.983Z,60.93
2019-04-09T16:12:49.628Z,61.86
2019-04-09T16:15:19.137Z,60.73
2019-04-09T16:17:48.514Z,61.47
2019-04-09T16:20:17.924Z,62.19
2019-04-09T16:22:47.294Z,59.63
2019-04-09T16:25:16.818Z,60.59
2019-04-09T16:27:46.524Z,59.62
2019-04-09T16:30:17.338Z,60.89
2019-04-09T16:33:03.722Z,61.93
2019-04-09T16:35:19.040Z,65.87
2019-04-09T16:37:48.437Z,66.94
2019-04-09T16:40:19.001Z,67.05
2019-04-09T16:42:48.589Z,66.85
2019-04-09T16:45:19.588Z,64.54
2019-04-09T16:47:49.276Z,62.62
2019-04-09T16:50:18.972Z,63.55
2019-04-09T16:52:48.782Z,63.63
2019-04-09T16:55:18.299Z,63.41
2019-04-09T16:57:57.231Z,64.62
2019-04-09T17:00:22.670Z,65.08
2019-04-09T17:02:51.083Z,64.68
2019-04-09T17:05:22.222Z,64.09
2019-04-09T17:07:52.478Z,64.17
2019-04-09T17:10:22.937Z,64.33
2019-04-09T17:12:52.795Z,64.43
2019-04-09T17:15:23.210Z,64.16
2019-04-09T17:17:52.750Z,64.15
2019-04-09T17:20:22.152Z,64.46
2019-04-09T17:22:52.570Z,65.19
2019-04-09T17:25:22.090Z,65.75
2019-04-09T17:27:51.521Z,65.64
2019-04-09T17:30:21.824Z,65.16
2019-04-09T17:32:52.360Z,64.66
2019-04-09T17:35:22.798Z,66.18
2019-04-09T17:37:52.763Z,66.97
2019-04-09T17:40:22.238Z,66.67
2019-04-09T17:42:51.656Z,66.95
2019-04-09T17:45:22.138Z,65.65
2019-04-09T17:47:52.569Z,66.83
2019-04-09T17:50:22.289Z,65.79
2019-04-09T17:52:51.939Z,66.35
2019-04-09T17:55:21.335Z,67.02
2019-04-09T17:57:51.609Z,67.17
2019-04-09T18:00:23.994Z,66.87
2019-04-09T18:02:53.384Z,67.04
2019-04-09T18:05:23.134Z,67.18
2019-04-09T18:07:53.084Z,67.64
2019-04-09T18:10:24.457Z,68.02
2019-04-09T18:12:54.853Z,67.68
2019-04-09T18:15:25.241Z,67.16
2019-04-09T18:17:55.735Z,66.89
2019-04-09T18:20:25.741Z,66.03
2019-04-09T18:22:55.792Z,64.51
2019-04-09T18:25:26.123Z,64.41
2019-04-09T18:27:56.142Z,64.45
2019-04-09T18:30:26.402Z,63.29
2019-04-09T18:32:56.073Z,63.42
2019-04-09T18:35:25.962Z,62.17
2019-04-09T18:37:56.626Z,61.96
2019-04-09T18:40:26.144Z,62.10
2019-04-09T18:42:58.115Z,61.82
2019-04-09T18:45:26.984Z,62.14
2019-04-09T18:47:56.565Z,61.92
2019-04-09T18:50:26.483Z,61.94
2019-04-09T18:52:56.459Z,62.24
2019-04-09T18:55:26.579Z,62.80
2019-04-09T18:57:58.522Z,62.80
2019-04-09T19:00:38.438Z,62.31
2019-04-09T19:03:09.575Z,62.66
2019-04-09T19:05:40.611Z,62.38
2019-04-09T19:08:10.410Z,62.66
2019-04-09T19:10:41.202Z,63.21
2019-04-09T19:13:12.765Z,63.27
2019-04-09T19:15:42.200Z,63.26
2019-04-09T19:18:12.763Z,63.42
2019-04-09T19:20:42.429Z,63.72
2019-04-09T19:23:11.924Z,64.05
2019-04-09T19:25:41.495Z,63.57
2019-04-09T19:28:10.959Z,63.44
2019-04-09T19:30:41.276Z,63.64
2019-04-09T19:33:11.775Z,64.05
2019-04-09T19:35:41.771Z,64.67
2019-04-09T19:38:14.696Z,65.36
2019-04-09T19:40:42.647Z,65.03
2019-04-09T19:43:12.507Z,65.34
2019-04-09T19:45:44.394Z,66.02
2019-04-09T19:48:13.961Z,65.05
2019-04-09T19:50:43.880Z,65.87
2019-04-09T19:53:13.369Z,66.06
2019-04-09T19:55:42.789Z,66.44
2019-04-09T19:58:12.697Z,66.34
2019-04-09T20:00:43.565Z,66.47
2019-04-09T20:03:13.617Z,66.87
2019-04-09T20:05:44.136Z,66.83
2019-04-09T20:08:14.631Z,66.64
2019-04-09T20:10:44.951Z,66.71
2019-04-09T20:13:14.656Z,67.22
2019-04-09T20:15:44.288Z,66.86
2019-04-09T20:18:15.461Z,66.78
2019-04-09T20:20:45.195Z,66.71
2019-04-09T20:23:14.577Z,67.04
2019-04-09T20:25:44.034Z,66.94
2019-04-09T20:28:14.013Z,67.82
2019-04-09T20:30:44.050Z,67.24
2019-04-09T20:33:13.579Z,67.23
2019-04-09T20:35:49.717Z,67.07
2019-04-09T20:38:14.432Z,67.72
2019-04-09T20:40:44.077Z,67.88
2019-04-09T20:43:15.402Z,67.39
2019-04-09T20:45:44.972Z,67.54
2019-04-09T20:48:15.252Z,67.75
2019-04-09T20:50:44.863Z,68.04
2019-04-09T20:53:15.718Z,67.78
2019-04-09T20:55:46.395Z,68.27
2019-04-09T20:58:15.892Z,68.55
2019-04-09T21:01:01.129Z,67.82
2019-04-09T21:03:53.667Z,68.24
2019-04-09T21:06:18.235Z,68.45
2019-04-09T21:08:47.716Z,68.80
2019-04-09T21:11:17.961Z,68.15
2019-04-09T21:13:47.584Z,68.69
2019-04-09T21:16:16.981Z,68.46
2019-04-09T21:18:46.391Z,68.22
2019-04-09T21:21:17.290Z,68.55
2019-04-09T21:23:46.785Z,68.76
2019-04-09T21:26:16.253Z,68.96
2019-04-09T21:28:45.864Z,68.59
2019-04-09T21:31:15.468Z,68.95
2019-04-09T21:33:44.804Z,68.58
2019-04-09T21:36:16.936Z,68.16
2019-04-09T21:38:46.451Z,68.17
2019-04-09T21:41:16.502Z,68.03
2019-04-09T21:43:46.035Z,68.27
2019-04-09T21:46:15.510Z,68.23
2019-04-09T21:48:45.331Z,68.94
2019-04-09T21:51:15.522Z,68.67
2019-04-09T21:53:45.917Z,68.24
2019-04-09T21:56:15.346Z,68.44
2019-04-09T21:58:45.697Z,68.27
2019-04-09T22:01:18.293Z,68.09
2019-04-09T22:03:48.448Z,68.01
2019-04-09T22:06:26.870Z,67.96
2019-04-09T22:08:49.058Z,67.76
2019-04-09T22:11:18.425Z,67.60
2019-04-09T22:13:47.921Z,67.66
2019-04-09T22:16:17.864Z,67.29
2019-04-09T22:18:47.970Z,67.90
2019-04-09T22:21:18.558Z,67.14
2019-04-09T22:23:54.421Z,67.14
2019-04-09T22:26:19.707Z,66.80
2019-04-09T22:28:49.097Z,67.01
2019-04-09T22:31:19.510Z,67.44
2019-04-09T22:33:49.058Z,67.70
2019-04-09T22:36:30.273Z,67.80
2019-04-09T22:38:49.723Z,68.15
2019-04-09T22:41:19.459Z,68.15
2019-04-09T22:43:49.014Z,68.26
2019-04-09T22:46:18.420Z,68.29
2019-04-09T22:48:48.601Z,67.90
2019-04-09T22:51:18.860Z,68.34
2019-04-09T22:53:49.268Z,67.69
2019-04-09T22:56:18.758Z,68.48
2019-04-09T22:58:48.995Z,68.61
2019-04-09T23:01:49.881Z,68.98
2019-04-09T23:04:40.571Z,68.93
2019-04-09T23:07:28.915Z,68.51
2019-04-09T23:10:23.906Z,67.80
2019-04-09T23:12:56.428Z,68.22
2019-04-09T23:15:37.800Z,67.67
2019-04-09T23:18:07.226Z,68.48
2019-04-09T23:20:36.936Z,68.98
2019-04-09T23:23:06.940Z,68.28
2019-04-09T23:25:37.127Z,69.19
2019-04-09T23:28:07.387Z,67.52
2019-04-09T23:30:37.808Z,68.10
2019-04-09T23:33:08.053Z,68.24
2019-04-09T23:35:37.612Z,68.17
2019-04-09T23:38:07.012Z,68.13
2019-04-09T23:40:37.461Z,68.32
2019-04-09T23:43:07.768Z,68.77
2019-04-09T23:45:37.278Z,68.48
2019-04-09T23:48:06.934Z,68.50
2019-04-09T23:50:37.997Z,67.99
2019-04-09T23:53:08.621Z,67.62
2019-04-09T23:55:38.798Z,66.92
2019-04-09T23:58:09.152Z,67.37
